createdAt,value
2022-08-26T00:00:48.066Z,11.40
2022-08-26T00:01:48.091Z,11.20
2022-08-26T00:02:48.038Z,10.30
2022-08-26T00:03:48.077Z,13.20
2022-08-26T00:04:48.031Z,10.10
2022-08-26T00:05:48.025Z,11.20
2022-08-26T00:06:49.024Z,11.40
2022-08-26T00:07:48.009Z,12.00
2022-08-26T00:08:47.959Z,10.90
2022-08-26T00:09:47.940Z,10.90
2022-08-26T00:10:48.152Z,10.40
2022-08-26T00:11:47.939Z,11.50
2022-08-26T00:12:48.769Z,12.80
2022-08-26T00:13:49.589Z,9.10
2022-08-26T00:14:48.221Z,11.40
2022-08-26T00:15:47.931Z,11.50
2022-08-26T00:16:49.012Z,11.50
2022-08-26T00:17:48.052Z,10.80
2022-08-26T00:18:48.474Z,11.90
2022-08-26T00:19:47.824Z,11.10
2022-08-26T00:20:47.855Z,11.30
2022-08-26T00:21:48.555Z,11.70
2022-08-26T00:22:47.783Z,12.20
2022-08-26T00:23:47.795Z,13.00
2022-08-26T00:24:48.530Z,10.80
2022-08-26T00:25:47.786Z,10.50
2022-08-26T00:26:47.727Z,13.40
2022-08-26T00:27:47.816Z,9.20
2022-08-26T00:28:48.126Z,11.40
2022-08-26T00:29:47.714Z,10.70
2022-08-26T00:30:47.950Z,10.30
2022-08-26T00:31:47.734Z,9.60
2022-08-26T00:32:47.923Z,9.60
2022-08-26T00:33:48.256Z,10.70
2022-08-26T00:34:48.076Z,12.60
2022-08-26T00:35:47.896Z,9.60
2022-08-26T00:36:50.878Z,13.00
2022-08-26T00:37:48.026Z,10.70
2022-08-26T00:38:47.696Z,12.90
2022-08-26T00:39:47.775Z,12.40
2022-08-26T00:40:47.600Z,9.80
2022-08-26T00:41:47.827Z,9.80
2022-08-26T00:42:47.840Z,10.50
2022-08-26T00:43:48.100Z,10.60
2022-08-26T00:44:48.277Z,12.10
2022-08-26T00:45:47.964Z,12.70
2022-08-26T00:46:48.375Z,12.60
2022-08-26T00:47:47.588Z,11.80
2022-08-26T00:48:48.000Z,11.80
2022-08-26T00:49:48.545Z,12.40
2022-08-26T00:50:47.674Z,11.30
2022-08-26T00:51:47.544Z,11.20
2022-08-26T00:52:48.273Z,11.80
2022-08-26T00:53:47.439Z,10.80
2022-08-26T00:54:47.668Z,12.20
2022-08-26T00:55:47.594Z,10.90
2022-08-26T00:56:47.570Z,12.70
2022-08-26T00:57:47.375Z,10.20
2022-08-26T00:58:47.443Z,11.60
2022-08-26T00:59:47.683Z,12.40
2022-08-26T01:00:47.507Z,10.90
2022-08-26T01:01:47.655Z,11.90
2022-08-26T01:02:47.569Z,12.40
2022-08-26T01:03:47.713Z,13.80
2022-08-26T01:04:47.647Z,13.30
2022-08-26T01:05:47.494Z,11.10
2022-08-26T01:06:47.628Z,11.60
2022-08-26T01:07:47.319Z,12.80
2022-08-26T01:08:47.522Z,13.10
2022-08-26T01:09:47.272Z,11.90
2022-08-26T01:10:47.730Z,11.90
2022-08-26T01:11:47.533Z,11.10
2022-08-26T01:12:47.529Z,14.80
2022-08-26T01:13:47.198Z,12.10
2022-08-26T01:14:47.337Z,12.60
2022-08-26T01:15:47.202Z,12.90
2022-08-26T01:16:47.331Z,13.50
2022-08-26T01:17:47.562Z,12.70
2022-08-26T01:18:47.560Z,12.90
2022-08-26T01:19:47.335Z,11.20
2022-08-26T01:20:47.427Z,14.60
2022-08-26T01:21:47.225Z,15.10
2022-08-26T01:22:47.194Z,15.50
2022-08-26T01:23:47.298Z,13.40
2022-08-26T01:24:47.255Z,12.50
2022-08-26T01:25:47.194Z,12.10
2022-08-26T01:26:47.361Z,13.40
2022-08-26T01:27:47.247Z,13.60
2022-08-26T01:28:50.623Z,14.10
2022-08-26T01:29:47.104Z,14.40
2022-08-26T01:30:47.267Z,15.40
2022-08-26T01:31:47.410Z,13.50
2022-08-26T01:32:47.098Z,13.60
2022-08-26T01:33:47.166Z,14.80
2022-08-26T01:34:47.254Z,14.90
2022-08-26T01:35:47.107Z,16.30
2022-08-26T01:36:51.171Z,13.80
2022-08-26T01:37:47.234Z,13.60
2022-08-26T01:38:47.118Z,14.20
2022-08-26T01:39:47.135Z,15.20
2022-08-26T01:40:47.065Z,14.70
2022-08-26T01:41:47.262Z,13.20
2022-08-26T01:42:48.466Z,13.00
2022-08-26T01:43:46.905Z,11.80
2022-08-26T01:44:47.124Z,11.90
2022-08-26T01:45:47.065Z,13.20
2022-08-26T01:46:47.904Z,12.80
2022-08-26T01:47:47.155Z,14.60
2022-08-26T01:48:47.208Z,12.50
2022-08-26T01:49:47.284Z,13.60
2022-08-26T01:50:46.952Z,12.70
2022-08-26T01:51:47.073Z,14.50
2022-08-26T01:52:49.883Z,14.00
2022-08-26T01:53:46.988Z,13.20
2022-08-26T01:54:50.542Z,16.50
2022-08-26T01:55:47.000Z,12.90
2022-08-26T01:56:46.964Z,15.70
2022-08-26T01:57:46.795Z,15.90
2022-08-26T01:58:46.786Z,13.40
2022-08-26T01:59:46.895Z,13.20
2022-08-26T02:00:47.520Z,14.60
2022-08-26T02:01:46.783Z,14.90
2022-08-26T02:02:46.778Z,15.20
2022-08-26T02:03:46.701Z,13.00
2022-08-26T02:04:46.704Z,14.20
2022-08-26T02:05:46.744Z,14.10
2022-08-26T02:06:46.817Z,16.20
2022-08-26T02:07:46.772Z,15.20
2022-08-26T02:08:46.630Z,14.20
2022-08-26T02:09:46.706Z,16.70
2022-08-26T02:10:46.659Z,15.00
2022-08-26T02:11:46.606Z,15.50
2022-08-26T02:12:46.752Z,12.70
2022-08-26T02:13:46.638Z,13.50
2022-08-26T02:14:46.506Z,14.00
2022-08-26T02:15:46.513Z,13.10
2022-08-26T02:16:46.591Z,16.70
2022-08-26T02:17:46.548Z,14.20
2022-08-26T02:18:47.021Z,14.90
2022-08-26T02:19:46.640Z,12.50
2022-08-26T02:20:46.549Z,14.10
2022-08-26T02:21:46.484Z,13.70
2022-08-26T02:22:46.450Z,16.80
2022-08-26T02:23:46.527Z,13.40
2022-08-26T02:24:47.083Z,14.70
2022-08-26T02:25:46.559Z,14.40
2022-08-26T02:26:46.578Z,15.00
2022-08-26T02:27:46.492Z,14.20
2022-08-26T02:28:46.488Z,14.40
2022-08-26T02:29:46.460Z,14.70
2022-08-26T02:30:46.630Z,16.80
2022-08-26T02:31:46.550Z,15.00
2022-08-26T02:32:49.563Z,13.80
2022-08-26T02:33:46.332Z,19.00
2022-08-26T02:34:46.332Z,15.60
2022-08-26T02:35:46.258Z,16.60
2022-08-26T02:36:46.379Z,14.90
2022-08-26T02:37:46.282Z,15.10
2022-08-26T02:38:46.544Z,15.70
2022-08-26T02:39:46.264Z,14.80
2022-08-26T02:40:46.194Z,14.50
2022-08-26T02:41:46.433Z,16.70
2022-08-26T02:42:46.269Z,14.20
2022-08-26T02:43:46.480Z,16.20
2022-08-26T02:44:46.368Z,15.80
2022-08-26T02:45:46.163Z,16.70
2022-08-26T02:46:47.244Z,14.60
2022-08-26T02:47:46.142Z,18.30
2022-08-26T02:48:46.218Z,14.50
2022-08-26T02:49:47.201Z,13.80
2022-08-26T02:50:46.109Z,18.50
2022-08-26T02:51:46.216Z,17.60
2022-08-26T02:52:46.150Z,14.80
2022-08-26T02:53:46.120Z,16.90
2022-08-26T02:54:46.186Z,14.80
2022-08-26T02:55:46.076Z,17.10
2022-08-26T02:56:46.035Z,17.10
2022-08-26T02:57:46.051Z,15.00
2022-08-26T02:58:47.076Z,18.10
2022-08-26T02:59:46.078Z,16.20
2022-08-26T03:00:52.603Z,17.40
2022-08-26T03:01:46.162Z,16.00
2022-08-26T03:02:45.965Z,15.10
2022-08-26T03:03:45.985Z,16.60
2022-08-26T03:04:57.820Z,17.20
2022-08-26T03:05:46.203Z,15.40
2022-08-26T03:06:47.035Z,16.50
2022-08-26T03:07:46.272Z,16.30
2022-08-26T03:08:45.921Z,17.60
2022-08-26T03:09:45.892Z,17.40
2022-08-26T03:10:45.967Z,15.00
2022-08-26T03:11:45.958Z,16.70
2022-08-26T03:12:47.433Z,14.40
2022-08-26T03:13:45.859Z,15.30
2022-08-26T03:14:45.989Z,18.10
2022-08-26T03:15:46.028Z,17.20
2022-08-26T03:16:48.434Z,18.50
2022-08-26T03:17:45.900Z,21.40
2022-08-26T03:18:51.978Z,20.30
2022-08-26T03:19:45.789Z,16.50
2022-08-26T03:20:45.968Z,18.30
2022-08-26T03:21:47.400Z,17.00
2022-08-26T03:22:45.897Z,18.90
2022-08-26T03:23:46.091Z,17.00
2022-08-26T03:24:46.619Z,16.10
2022-08-26T03:25:45.759Z,20.30
2022-08-26T03:26:52.920Z,20.60
2022-08-26T03:27:46.006Z,20.30
2022-08-26T03:28:46.626Z,17.00
2022-08-26T03:29:45.793Z,19.60
2022-08-26T03:30:45.936Z,17.20
2022-08-26T03:31:46.875Z,16.90
2022-08-26T03:32:45.803Z,15.80
2022-08-26T03:33:45.756Z,15.40
2022-08-26T03:34:45.737Z,14.90
2022-08-26T03:35:45.638Z,14.10
2022-08-26T03:36:46.035Z,13.90
2022-08-26T03:37:45.833Z,14.30
2022-08-26T03:38:45.592Z,15.20
2022-08-26T03:39:45.526Z,15.50
2022-08-26T03:40:45.986Z,15.50
2022-08-26T03:41:46.651Z,16.10
2022-08-26T03:42:45.749Z,17.60
2022-08-26T03:43:45.571Z,14.10
2022-08-26T03:44:45.636Z,14.00
2022-08-26T03:45:46.087Z,15.90
2022-08-26T03:46:45.667Z,13.60
2022-08-26T03:47:45.532Z,15.00
2022-08-26T03:48:45.807Z,15.20
2022-08-26T03:49:45.649Z,15.40
2022-08-26T03:50:45.436Z,17.90
2022-08-26T03:51:45.479Z,17.10
2022-08-26T03:52:45.627Z,17.80
2022-08-26T03:53:45.477Z,16.40
2022-08-26T03:54:45.538Z,14.10
2022-08-26T03:55:45.797Z,13.80
2022-08-26T03:56:46.560Z,13.90
2022-08-26T03:57:45.495Z,14.40
2022-08-26T03:58:45.869Z,14.50
2022-08-26T03:59:45.373Z,12.70
2022-08-26T04:00:46.134Z,12.40
2022-08-26T04:01:45.516Z,12.20
2022-08-26T04:02:45.404Z,12.80
2022-08-26T04:03:45.291Z,12.60
2022-08-26T04:04:45.257Z,13.50
2022-08-26T04:05:45.257Z,15.40
2022-08-26T04:06:45.356Z,16.90
2022-08-26T04:07:45.343Z,16.30
2022-08-26T04:08:45.394Z,13.80
2022-08-26T04:09:45.235Z,16.70
2022-08-26T04:10:45.429Z,14.40
2022-08-26T04:11:45.399Z,13.70
2022-08-26T04:12:45.601Z,14.50
2022-08-26T04:13:45.427Z,11.90
2022-08-26T04:14:45.155Z,12.20
2022-08-26T04:15:45.337Z,13.50
2022-08-26T04:16:45.218Z,12.00
2022-08-26T04:17:45.304Z,13.00
2022-08-26T04:18:46.664Z,13.70
2022-08-26T04:19:45.089Z,12.70
2022-08-26T04:20:45.099Z,11.90
2022-08-26T04:21:45.075Z,16.70
2022-08-26T04:22:45.060Z,15.00
2022-08-26T04:23:47.066Z,14.50
2022-08-26T04:24:45.105Z,11.80
2022-08-26T04:25:45.019Z,11.70
2022-08-26T04:26:44.987Z,15.20
2022-08-26T04:27:44.977Z,11.60
2022-08-26T04:28:45.032Z,11.70
2022-08-26T04:29:44.967Z,13.80
2022-08-26T04:30:45.115Z,14.40
2022-08-26T04:31:45.066Z,12.30
2022-08-26T04:32:44.946Z,13.30
2022-08-26T04:33:44.983Z,14.40
2022-08-26T04:34:45.065Z,15.70
2022-08-26T04:35:44.896Z,14.80
2022-08-26T04:36:45.072Z,12.50
2022-08-26T04:37:45.147Z,12.40
2022-08-26T04:38:44.891Z,12.00
2022-08-26T04:39:44.854Z,12.20
2022-08-26T04:40:46.745Z,12.70
2022-08-26T04:41:44.873Z,13.10
2022-08-26T04:42:44.871Z,13.40
2022-08-26T04:43:44.821Z,12.20
2022-08-26T04:44:45.856Z,11.40
2022-08-26T04:45:44.781Z,13.80
2022-08-26T04:46:44.838Z,12.90
2022-08-26T04:47:44.766Z,12.10
2022-08-26T04:48:48.473Z,11.50
2022-08-26T04:49:44.930Z,12.70
2022-08-26T04:50:44.934Z,13.20
2022-08-26T04:58:35.913Z,13.40
2022-08-26T05:32:46.967Z,16.60
2022-08-26T05:33:47.951Z,18.20
2022-08-26T05:34:47.877Z,17.40
2022-08-26T05:35:47.933Z,23.10
2022-08-26T05:36:47.853Z,30.20
2022-08-26T05:37:48.096Z,24.40
2022-08-26T05:38:47.833Z,24.00
2022-08-26T05:39:51.019Z,28.20
2022-08-26T05:40:47.868Z,27.00
2022-08-26T05:41:47.811Z,28.10
2022-08-26T05:42:47.812Z,26.90
2022-08-26T05:43:47.823Z,31.40
2022-08-26T05:44:55.703Z,26.10
2022-08-26T05:45:47.754Z,29.80
2022-08-26T05:46:47.800Z,27.70
2022-08-26T05:47:47.727Z,27.10
2022-08-26T05:48:47.832Z,29.20
2022-08-26T05:49:49.471Z,31.50
2022-08-26T05:50:47.708Z,30.80
2022-08-26T05:51:48.101Z,27.30
2022-08-26T05:52:47.654Z,27.90
2022-08-26T05:53:54.770Z,31.10
2022-08-26T05:54:47.832Z,33.00
2022-08-26T05:55:47.702Z,28.00
2022-08-26T05:56:47.628Z,28.50
2022-08-26T05:57:47.815Z,28.50
2022-08-26T05:58:47.795Z,29.00
2022-08-26T05:59:47.581Z,24.90
2022-08-26T06:00:48.536Z,26.20
2022-08-26T06:01:47.689Z,25.40
2022-08-26T06:02:48.427Z,25.10
2022-08-26T06:03:47.592Z,23.30
2022-08-26T06:04:47.549Z,23.60
2022-08-26T06:05:47.538Z,23.30
2022-08-26T06:06:47.509Z,25.60
2022-08-26T06:07:47.552Z,23.60
2022-08-26T06:08:47.498Z,24.00
2022-08-26T06:09:47.501Z,22.10
2022-08-26T06:10:47.459Z,22.60
2022-08-26T06:11:47.444Z,23.40
2022-08-26T06:12:47.445Z,24.10
2022-08-26T06:13:47.487Z,25.60
2022-08-26T06:14:49.025Z,24.90
2022-08-26T06:15:47.615Z,24.80
2022-08-26T06:16:47.481Z,23.70
2022-08-26T06:17:47.498Z,22.40
2022-08-26T06:18:47.689Z,21.30
2022-08-26T06:21:04.038Z,23.20
2022-08-26T06:22:04.484Z,23.50
2022-08-26T06:23:04.597Z,23.90
2022-08-26T06:24:04.505Z,20.60
2022-08-26T06:25:04.412Z,23.80
2022-08-26T06:26:04.430Z,22.80
2022-08-26T06:27:04.466Z,23.00
2022-08-26T06:28:04.416Z,24.80
2022-08-26T06:29:04.341Z,25.30
2022-08-26T06:30:04.346Z,21.80
2022-08-26T06:31:04.550Z,26.70
2022-08-26T06:32:04.348Z,24.20
2022-08-26T06:33:04.431Z,22.60
2022-08-26T06:34:07.367Z,22.30
2022-08-26T06:35:04.309Z,21.20
2022-08-26T06:36:05.014Z,25.30
2022-08-26T06:37:04.333Z,23.10
2022-08-26T06:38:04.721Z,22.80
2022-08-26T06:39:04.234Z,24.80
2022-08-26T06:40:04.718Z,23.40
2022-08-26T06:41:04.375Z,23.20
2022-08-26T06:42:06.256Z,24.40
2022-08-26T06:43:04.383Z,22.30
2022-08-26T06:44:04.352Z,23.10
2022-08-26T06:45:04.450Z,24.00
2022-08-26T06:46:04.989Z,23.80
2022-08-26T06:47:04.398Z,25.10
2022-08-26T06:48:04.973Z,24.20
2022-08-26T06:49:04.209Z,24.40
2022-08-26T06:50:04.360Z,25.20
2022-08-26T06:51:04.212Z,23.70
2022-08-26T06:52:04.229Z,22.60
2022-08-26T06:53:04.337Z,22.40
2022-08-26T06:54:04.084Z,23.60
2022-08-26T06:55:04.118Z,23.60
2022-08-26T06:56:04.388Z,23.00
2022-08-26T06:57:04.107Z,21.10
2022-08-26T06:58:05.178Z,23.90
2022-08-26T06:59:04.295Z,21.80
2022-08-26T07:00:04.081Z,25.90
2022-08-26T07:01:11.201Z,22.00
2022-08-26T07:02:04.844Z,22.50
2022-08-26T07:03:07.555Z,20.50
2022-08-26T07:04:04.375Z,20.80
2022-08-26T07:05:04.159Z,20.30
2022-08-26T07:06:04.289Z,20.30
2022-08-26T07:07:04.139Z,21.80
2022-08-26T07:08:04.089Z,22.50
2022-08-26T07:09:04.245Z,20.40
2022-08-26T07:10:04.180Z,20.30
2022-08-26T07:11:04.162Z,20.10
2022-08-26T07:12:03.946Z,19.60
2022-08-26T07:13:04.084Z,20.40
2022-08-26T07:14:04.369Z,22.30
2022-08-26T07:15:03.969Z,19.70
2022-08-26T07:16:04.509Z,25.30
2022-08-26T07:17:03.996Z,22.10
2022-08-26T07:18:03.868Z,21.60
2022-08-26T07:19:10.988Z,22.70
2022-08-26T07:20:03.829Z,32.00
2022-08-26T07:21:03.806Z,26.00
2022-08-26T07:22:04.242Z,31.80
2022-08-26T07:23:03.762Z,38.90
2022-08-26T07:24:03.765Z,44.30
2022-08-26T07:25:03.818Z,47.20
2022-08-26T07:26:03.814Z,54.70
2022-08-26T07:27:03.705Z,53.10
2022-08-26T07:28:03.713Z,54.10
2022-08-26T07:29:03.686Z,51.50
2022-08-26T07:30:03.686Z,49.80
2022-08-26T07:31:03.772Z,51.30
2022-08-26T07:32:03.752Z,48.80
2022-08-26T07:33:03.667Z,47.00
2022-08-26T07:34:03.633Z,45.90
2022-08-26T07:35:03.637Z,38.30
2022-08-26T07:36:04.164Z,39.10
2022-08-26T07:37:03.641Z,42.20
2022-08-26T07:38:03.673Z,41.10
2022-08-26T07:39:03.641Z,48.10
2022-08-26T07:40:03.620Z,52.50
2022-08-26T07:41:03.625Z,59.60
2022-08-26T07:42:07.393Z,53.70
2022-08-26T07:43:03.566Z,54.60
2022-08-26T07:44:04.335Z,60.50
2022-08-26T07:45:03.820Z,51.70
2022-08-26T07:46:03.535Z,49.80
2022-08-26T07:47:03.520Z,53.40
2022-08-26T07:48:04.060Z,50.80
2022-08-26T07:49:03.557Z,47.90
2022-08-26T07:50:03.512Z,52.30
2022-08-26T07:51:03.658Z,54.50
2022-08-26T07:52:03.462Z,51.00
2022-08-26T07:53:04.563Z,53.20
2022-08-26T07:54:03.439Z,46.30
2022-08-26T07:55:03.416Z,47.30
2022-08-26T07:56:03.582Z,46.60
2022-08-26T07:57:05.136Z,40.30
2022-08-26T07:58:03.463Z,39.20
2022-08-26T07:59:04.331Z,39.90
2022-08-26T08:00:03.359Z,41.60
2022-08-26T08:01:03.406Z,42.00
2022-08-26T08:02:03.493Z,43.00
2022-08-26T08:03:03.527Z,43.10
2022-08-26T08:04:03.507Z,39.00
2022-08-26T08:05:03.424Z,37.70
2022-08-26T08:06:03.316Z,37.70
2022-08-26T08:07:03.316Z,39.50
2022-08-26T08:08:19.735Z,44.40
2022-08-26T08:09:03.321Z,47.10
2022-08-26T08:10:06.701Z,41.90
2022-08-26T08:11:03.331Z,47.20
2022-08-26T08:12:03.247Z,40.10
2022-08-26T08:13:03.203Z,38.10
2022-08-26T08:14:03.364Z,39.40
2022-08-26T08:15:03.244Z,35.00
2022-08-26T08:16:03.208Z,36.20
2022-08-26T08:17:04.038Z,31.80
2022-08-26T08:18:03.166Z,31.20
2022-08-26T08:19:03.807Z,26.50
2022-08-26T08:20:03.220Z,28.60
2022-08-26T08:21:20.931Z,29.40
2022-08-26T08:22:03.111Z,32.00
2022-08-26T08:23:03.140Z,29.90
2022-08-26T08:24:05.021Z,34.00
2022-08-26T08:25:03.094Z,37.50
2022-08-26T08:26:03.177Z,36.70
2022-08-26T08:27:03.063Z,31.40
2022-08-26T08:28:03.353Z,33.20
2022-08-26T08:29:03.045Z,32.90
2022-08-26T08:30:03.093Z,30.70
2022-08-26T08:31:03.385Z,28.30
2022-08-26T08:32:04.125Z,30.60
2022-08-26T08:33:03.491Z,29.20
2022-08-26T08:34:03.065Z,28.60
2022-08-26T08:35:03.035Z,32.00
2022-08-26T08:36:02.997Z,30.30
2022-08-26T08:37:04.376Z,31.60
2022-08-26T08:38:04.293Z,34.80
2022-08-26T08:39:03.042Z,39.40
2022-08-26T08:40:02.982Z,31.90
2022-08-26T08:41:05.535Z,35.00
2022-08-26T08:42:02.886Z,37.00
2022-08-26T08:43:02.886Z,32.90
2022-08-26T08:44:02.937Z,36.50
2022-08-26T08:45:02.925Z,36.40
2022-08-26T08:46:02.973Z,35.70
2022-08-26T08:47:03.129Z,31.50
2022-08-26T08:48:02.877Z,33.80
2022-08-26T08:49:02.946Z,36.80
2022-08-26T08:50:02.888Z,42.30
2022-08-26T08:51:03.475Z,40.50
2022-08-26T08:52:02.925Z,37.50
2022-08-26T08:53:02.825Z,37.30
2022-08-26T08:54:03.065Z,34.10
2022-08-26T08:55:02.826Z,34.30
2022-08-26T08:56:02.786Z,35.10
2022-08-26T08:57:02.762Z,38.90
2022-08-26T08:58:02.791Z,31.90
2022-08-26T08:59:02.755Z,33.10
2022-08-26T09:00:02.693Z,32.00
2022-08-26T09:01:02.732Z,31.90
2022-08-26T09:02:03.069Z,40.80
2022-08-26T09:03:02.691Z,37.60
2022-08-26T09:04:02.627Z,31.80
2022-08-26T09:05:02.674Z,32.20
2022-08-26T09:06:03.476Z,33.40
2022-08-26T09:07:02.764Z,29.50
2022-08-26T09:08:02.860Z,35.40
2022-08-26T09:09:02.653Z,35.10
2022-08-26T09:10:02.658Z,38.60
2022-08-26T09:11:02.605Z,32.70
2022-08-26T09:12:02.793Z,35.80
2022-08-26T09:13:02.676Z,36.90
2022-08-26T09:14:02.587Z,42.30
2022-08-26T09:15:03.630Z,39.60
2022-08-26T09:16:02.527Z,39.50
2022-08-26T09:17:02.621Z,45.90
2022-08-26T09:18:02.541Z,47.30
2022-08-26T09:19:02.496Z,46.70
2022-08-26T09:20:02.809Z,41.40
2022-08-26T09:21:03.309Z,47.20
2022-08-26T09:22:06.979Z,37.40
2022-08-26T09:23:02.492Z,36.30
2022-08-26T09:24:02.438Z,39.60
2022-08-26T09:25:02.404Z,42.60
2022-08-26T09:26:02.542Z,35.70
2022-08-26T09:27:02.406Z,37.30
2022-08-26T09:28:02.626Z,37.10
2022-08-26T09:29:02.383Z,40.20
2022-08-26T09:30:02.372Z,36.00
2022-08-26T09:31:03.517Z,34.20
2022-08-26T09:32:02.391Z,35.00
2022-08-26T09:33:02.335Z,38.70
2022-08-26T09:34:02.364Z,41.90
2022-08-26T09:35:02.389Z,37.80
2022-08-26T09:36:02.405Z,37.40
2022-08-26T09:37:04.527Z,41.40
2022-08-26T09:38:02.388Z,35.60
2022-08-26T09:39:02.288Z,47.80
2022-08-26T09:40:02.521Z,38.80
2022-08-26T09:41:02.303Z,42.50
2022-08-26T09:42:02.349Z,39.00
2022-08-26T09:43:02.230Z,42.10
2022-08-26T09:44:02.300Z,40.20
2022-08-26T09:45:02.324Z,38.40
2022-08-26T09:46:02.318Z,36.00
2022-08-26T09:47:02.215Z,34.90
2022-08-26T09:48:02.315Z,37.80
2022-08-26T09:49:02.204Z,30.30
2022-08-26T09:50:03.323Z,33.60
2022-08-26T09:51:02.199Z,34.40
2022-08-26T09:52:02.436Z,31.30
2022-08-26T09:53:02.213Z,44.20
2022-08-26T09:54:02.312Z,42.10
2022-08-26T09:55:02.164Z,34.70
2022-08-26T09:56:02.224Z,32.90
2022-08-26T09:57:02.135Z,29.80
2022-08-26T09:58:04.124Z,27.60
2022-08-26T09:59:02.337Z,25.80
2022-08-26T10:00:02.839Z,31.50
2022-08-26T10:01:03.053Z,33.70
2022-08-26T10:03:02.182Z,34.20
2022-08-26T10:04:02.056Z,31.50
2022-08-26T10:05:08.983Z,27.30
2022-08-26T10:06:02.002Z,27.60
2022-08-26T10:07:02.027Z,29.00
2022-08-26T10:08:02.025Z,31.60
2022-08-26T10:09:03.594Z,28.90
2022-08-26T10:10:02.012Z,27.80
2022-08-26T10:11:01.963Z,31.70
2022-08-26T10:12:01.953Z,31.90
2022-08-26T10:13:02.080Z,25.90
2022-08-26T10:14:01.967Z,24.30
2022-08-26T10:15:01.974Z,23.20
2022-08-26T10:16:01.874Z,23.30
2022-08-26T10:17:01.993Z,23.30
2022-08-26T10:18:01.983Z,24.00
2022-08-26T10:19:02.161Z,28.30
2022-08-26T10:20:02.263Z,31.00
2022-08-26T10:21:01.884Z,23.80
2022-08-26T10:22:02.132Z,24.60
2022-08-26T10:23:02.028Z,22.20
2022-08-26T10:24:01.985Z,23.10
2022-08-26T10:25:02.748Z,21.80
2022-08-26T10:26:02.079Z,23.10
2022-08-26T10:27:02.146Z,22.00
2022-08-26T10:28:01.895Z,21.10
2022-08-26T10:29:01.964Z,22.10
2022-08-26T10:30:01.957Z,23.60
2022-08-26T10:31:02.649Z,25.60
2022-08-26T10:32:03.592Z,23.30
2022-08-26T10:33:02.030Z,24.00
2022-08-26T10:34:01.791Z,24.00
2022-08-26T10:35:01.993Z,29.30
2022-08-26T10:36:01.964Z,32.70
2022-08-26T10:37:14.473Z,33.00
2022-08-26T10:38:01.987Z,33.00
2022-08-26T10:39:02.020Z,33.00
2022-08-26T10:40:01.710Z,30.40
2022-08-26T10:41:01.591Z,28.60
2022-08-26T10:42:01.643Z,36.10
2022-08-26T10:43:01.709Z,35.20
2022-08-26T10:44:01.825Z,30.60
2022-08-26T10:45:01.542Z,34.90
2022-08-26T10:46:01.623Z,32.80
2022-08-26T10:47:01.576Z,33.30
2022-08-26T10:48:01.590Z,30.40
2022-08-26T10:49:03.215Z,28.40
2022-08-26T10:50:03.430Z,30.50
2022-08-26T10:51:01.493Z,25.90
2022-08-26T10:52:01.585Z,30.80
2022-08-26T10:53:01.650Z,30.30
2022-08-26T10:54:01.688Z,37.50
2022-08-26T10:55:01.620Z,30.10
2022-08-26T10:56:01.537Z,32.70
2022-08-26T10:57:01.505Z,26.70
2022-08-26T10:58:05.031Z,31.40
2022-08-26T10:59:01.456Z,35.30
2022-08-26T11:00:01.703Z,31.00
2022-08-26T11:01:02.524Z,28.10
2022-08-26T11:02:03.859Z,30.80
2022-08-26T11:03:01.342Z,31.90
2022-08-26T11:04:01.398Z,31.90
2022-08-26T11:05:01.335Z,42.20
2022-08-26T11:06:01.333Z,43.70
2022-08-26T11:07:01.350Z,42.30
2022-08-26T11:08:01.407Z,45.00
2022-08-26T11:09:01.279Z,41.50
2022-08-26T11:10:01.301Z,39.20
2022-08-26T11:11:01.281Z,44.90
2022-08-26T11:12:09.991Z,44.70
2022-08-26T11:13:01.761Z,49.70
2022-08-26T11:14:01.311Z,37.60
2022-08-26T11:15:01.280Z,39.50
2022-08-26T11:16:01.409Z,31.60
2022-08-26T11:17:01.328Z,27.10
2022-08-26T11:18:01.158Z,28.20
2022-08-26T11:19:01.144Z,32.30
2022-08-26T11:20:03.887Z,27.40
2022-08-26T11:21:01.135Z,27.20
2022-08-26T11:22:01.157Z,25.70
2022-08-26T11:23:01.130Z,25.70
2022-08-26T11:24:01.135Z,23.20
2022-08-26T11:25:01.098Z,21.80
2022-08-26T11:26:01.158Z,25.60
2022-08-26T11:27:01.073Z,23.30
2022-08-26T11:28:01.135Z,24.30
2022-08-26T11:29:01.038Z,23.80
2022-08-26T11:30:01.066Z,25.30
2022-08-26T11:31:01.031Z,20.00
2022-08-26T11:32:01.111Z,22.10
2022-08-26T11:33:01.042Z,24.10
2022-08-26T11:34:01.057Z,21.70
2022-08-26T11:35:01.039Z,21.20
2022-08-26T11:36:00.985Z,24.20
2022-08-26T11:37:00.962Z,22.90
2022-08-26T11:38:01.015Z,28.70
2022-08-26T11:39:00.988Z,28.60
2022-08-26T11:40:01.010Z,26.00
2022-08-26T11:41:00.912Z,25.00
2022-08-26T11:42:00.914Z,26.90
2022-08-26T11:43:00.906Z,24.60
2022-08-26T11:44:01.299Z,24.40
2022-08-26T11:45:05.402Z,22.80
2022-08-26T11:46:00.954Z,22.20
2022-08-26T11:47:00.881Z,26.20
2022-08-26T11:48:00.898Z,23.30
2022-08-26T11:49:00.839Z,28.10
2022-08-26T11:50:00.843Z,31.10
2022-08-26T11:51:00.822Z,25.20
2022-08-26T11:52:00.849Z,31.40
2022-08-26T11:53:00.805Z,27.80
2022-08-26T11:54:00.776Z,22.00
2022-08-26T11:55:00.775Z,24.70
2022-08-26T11:56:01.304Z,21.80
2022-08-26T11:57:02.895Z,22.90
2022-08-26T11:58:00.752Z,27.00
2022-08-26T11:59:02.515Z,27.10
2022-08-26T12:00:00.714Z,29.10
2022-08-26T12:01:00.705Z,28.20
2022-08-26T12:02:00.760Z,23.90
2022-08-26T12:03:00.723Z,28.50
2022-08-26T12:04:01.503Z,24.40
2022-08-26T12:05:00.662Z,25.30
2022-08-26T12:06:00.655Z,24.40
2022-08-26T12:07:00.665Z,32.30
2022-08-26T12:08:00.689Z,29.10
2022-08-26T12:09:01.625Z,25.90
2022-08-26T12:10:00.648Z,28.50
2022-08-26T12:11:00.622Z,21.30
2022-08-26T12:12:00.606Z,24.00
2022-08-26T12:13:00.657Z,25.30
2022-08-26T12:14:00.617Z,26.90
2022-08-26T12:15:00.633Z,29.60
2022-08-26T12:16:00.675Z,23.30
2022-08-26T12:17:00.582Z,27.20
2022-08-26T12:18:00.507Z,25.10
2022-08-26T12:19:00.599Z,28.80
2022-08-26T12:20:00.577Z,24.80
2022-08-26T12:21:00.567Z,24.30
2022-08-26T12:22:00.527Z,31.10
2022-08-26T12:23:00.485Z,27.70
2022-08-26T12:24:00.465Z,28.40
2022-08-26T12:25:00.449Z,23.20
2022-08-26T12:26:00.625Z,30.40
2022-08-26T12:27:02.032Z,33.30
2022-08-26T12:28:00.485Z,28.10
2022-08-26T12:29:12.720Z,29.30
2022-08-26T12:30:00.406Z,23.60
2022-08-26T12:31:00.973Z,25.50
2022-08-26T12:32:00.897Z,23.10
2022-08-26T12:33:00.342Z,24.80
2022-08-26T12:34:00.385Z,24.40
2022-08-26T12:35:00.496Z,28.00
2022-08-26T12:36:00.514Z,27.20
2022-08-26T12:38:00.586Z,30.30
2022-08-26T12:39:00.400Z,25.50
2022-08-26T12:40:00.417Z,24.20
2022-08-26T12:41:00.372Z,23.40
2022-08-26T12:42:00.257Z,26.10
2022-08-26T12:43:00.483Z,24.20
2022-08-26T12:44:01.208Z,23.00
2022-08-26T12:45:00.500Z,22.40
2022-08-26T12:46:01.632Z,20.40
2022-08-26T12:47:00.262Z,23.80
2022-08-26T12:48:00.171Z,19.90
2022-08-26T12:49:00.163Z,18.70
2022-08-26T12:50:00.385Z,20.80
2022-08-26T12:51:00.250Z,23.20
2022-08-26T12:52:00.335Z,20.90
2022-08-26T12:53:00.582Z,22.10
2022-08-26T12:54:00.268Z,24.50
2022-08-26T12:55:00.264Z,19.30
2022-08-26T12:56:00.194Z,19.10
2022-08-26T12:57:00.186Z,19.10
2022-08-26T12:58:00.223Z,21.20
2022-08-26T12:59:00.229Z,19.90
2022-08-26T13:00:00.410Z,21.10
2022-08-26T13:01:00.549Z,20.80
2022-08-26T13:02:00.533Z,20.10
2022-08-26T13:03:00.179Z,17.20
2022-08-26T13:04:00.428Z,19.50
2022-08-26T13:05:01.041Z,22.10
2022-08-26T13:06:00.229Z,17.50
2022-08-26T13:07:00.130Z,15.50
2022-08-26T13:08:00.187Z,17.60
2022-08-26T13:09:01.733Z,18.60
2022-08-26T13:10:00.155Z,14.50
2022-08-26T13:10:59.972Z,18.60
2022-08-26T13:12:02.199Z,16.40
2022-08-26T13:12:59.943Z,22.90
2022-08-26T13:13:59.994Z,15.40
2022-08-26T13:15:00.006Z,19.30
2022-08-26T13:16:00.033Z,17.50
2022-08-26T13:16:59.940Z,19.00
2022-08-26T13:17:59.984Z,16.40
2022-08-26T13:19:00.158Z,19.10
2022-08-26T13:20:03.562Z,14.00
2022-08-26T13:20:59.809Z,17.50
2022-08-26T13:21:59.889Z,22.10
2022-08-26T13:22:59.946Z,16.50
2022-08-26T13:23:59.823Z,22.40
2022-08-26T13:24:59.876Z,13.60
2022-08-26T13:25:59.911Z,16.60
2022-08-26T13:26:59.806Z,14.70
2022-08-26T13:27:59.792Z,18.50
2022-08-26T13:29:02.179Z,15.10
2022-08-26T13:30:00.034Z,18.70
2022-08-26T13:30:59.813Z,12.80
2022-08-26T13:32:00.128Z,14.20
2022-08-26T13:32:59.877Z,12.90
2022-08-26T13:33:59.935Z,17.70
2022-08-26T13:34:59.907Z,14.70
2022-08-26T13:36:01.579Z,15.10